createdAt,value
2023-07-15T00:00:54.557Z,9.00
2023-07-15T00:05:58.503Z,11.00
2023-07-15T00:11:01.490Z,9.40
2023-07-15T00:16:05.832Z,9.20
2023-07-15T00:21:14.254Z,9.20
2023-07-15T00:26:17.210Z,10.60
2023-07-15T00:31:21.666Z,9.60
2023-07-15T00:36:24.975Z,9.40
2023-07-15T00:41:29.106Z,9.80
2023-07-15T00:47:13.861Z,9.60
2023-07-15T00:52:17.788Z,10.00
2023-07-15T00:57:20.650Z,9.80
2023-07-15T01:02:25.068Z,9.80
2023-07-15T01:07:28.003Z,10.00
2023-07-15T01:12:31.266Z,11.40
2023-07-15T01:17:35.554Z,10.00
2023-07-15T01:22:39.831Z,9.80
2023-07-15T01:27:43.029Z,10.40
2023-07-15T01:32:45.849Z,11.60
2023-07-15T01:37:50.088Z,9.80
2023-07-15T01:42:53.784Z,10.20
2023-07-15T01:47:56.653Z,10.80
2023-07-15T01:53:01.161Z,10.40
2023-07-15T01:58:04.147Z,11.20
2023-07-15T02:03:07.123Z,13.00
2023-07-15T02:08:11.399Z,10.00
2023-07-15T02:13:14.246Z,11.80
2023-07-15T02:18:17.054Z,11.00
2023-07-15T02:23:21.737Z,11.40
2023-07-15T02:28:27.732Z,9.00
2023-07-15T02:33:31.553Z,8.40
2023-07-15T02:38:36.171Z,11.40
2023-07-15T02:43:39.040Z,11.80
2023-07-15T02:48:42.240Z,10.40
2023-07-15T02:53:49.585Z,12.80
2023-07-15T02:58:52.371Z,10.20
2023-07-15T03:03:55.211Z,9.80
2023-07-15T03:08:59.442Z,10.40
2023-07-15T03:14:02.607Z,11.00
2023-07-15T03:19:05.553Z,10.60
2023-07-15T03:24:10.439Z,11.00
2023-07-15T03:29:15.735Z,13.20
2023-07-15T03:34:19.709Z,10.60
2023-07-15T03:39:24.360Z,12.80
2023-07-15T03:44:27.257Z,20.40
2023-07-15T03:49:30.026Z,12.20
2023-07-15T03:54:34.171Z,12.20
2023-07-15T03:59:37.088Z,11.00
2023-07-15T04:04:39.929Z,13.60
2023-07-15T04:09:44.174Z,14.80
2023-07-15T04:14:47.025Z,12.80
2023-07-15T04:19:49.856Z,11.60
2023-07-15T04:24:54.023Z,11.60
2023-07-15T04:29:57.015Z,11.60
2023-07-15T04:34:59.833Z,12.00
2023-07-15T04:40:05.333Z,10.20
2023-07-15T04:45:09.107Z,11.00
2023-07-15T04:50:11.938Z,10.40
2023-07-15T04:55:16.872Z,10.80
2023-07-15T05:00:21.650Z,11.00
2023-07-15T05:05:24.798Z,11.00
2023-07-15T05:10:29.161Z,11.00
2023-07-15T05:15:32.764Z,11.00
2023-07-15T05:20:35.685Z,8.00
2023-07-15T05:25:39.886Z,10.00
2023-07-15T05:30:43.024Z,13.80
2023-07-15T05:35:45.972Z,11.60
2023-07-15T05:40:50.165Z,11.00
2023-07-15T05:45:53.108Z,11.60
2023-07-15T05:50:55.897Z,10.00
2023-07-15T05:56:00.049Z,12.40
2023-07-15T06:01:02.887Z,10.20
2023-07-15T06:06:05.880Z,11.00
2023-07-15T06:11:12.142Z,11.00
2023-07-15T06:16:15.221Z,10.40
2023-07-15T06:21:18.148Z,13.80
2023-07-15T06:26:22.508Z,11.60
2023-07-15T06:31:25.723Z,13.00
2023-07-15T06:36:28.750Z,12.60
2023-07-15T06:41:33.040Z,12.20
2023-07-15T06:46:36.129Z,11.40
2023-07-15T06:51:39.030Z,12.40
2023-07-15T06:56:43.296Z,10.20
2023-07-15T07:01:46.176Z,11.40
2023-07-15T07:06:49.009Z,9.60
2023-07-15T07:11:53.239Z,11.00
2023-07-15T07:16:56.135Z,11.80
2023-07-15T07:21:58.937Z,10.60
2023-07-15T07:27:03.342Z,11.00
2023-07-15T07:32:07.234Z,9.80
2023-07-15T07:37:10.634Z,11.00
2023-07-15T07:42:14.901Z,11.00
2023-07-15T07:47:18.052Z,12.60
2023-07-15T07:52:20.893Z,10.80
2023-07-15T07:57:25.046Z,9.00
2023-07-15T08:02:28.177Z,9.80
2023-07-15T08:07:31.083Z,8.00
2023-07-15T08:12:35.411Z,9.00
2023-07-15T08:17:38.319Z,8.00
2023-07-15T08:22:41.306Z,8.80
2023-07-15T08:27:45.694Z,12.00
2023-07-15T08:32:48.562Z,8.80
2023-07-15T08:37:54.109Z,9.80
2023-07-15T08:42:58.906Z,8.20
2023-07-15T08:48:01.965Z,8.80
2023-07-15T08:53:05.028Z,9.00
2023-07-15T08:58:09.241Z,9.00
2023-07-15T09:03:12.040Z,9.60
2023-07-15T09:08:16.669Z,8.60
2023-07-15T09:13:25.669Z,9.60
2023-07-15T09:18:28.522Z,11.80
2023-07-15T09:23:31.351Z,9.20
2023-07-15T09:28:35.661Z,8.40
2023-07-15T09:33:40.782Z,8.00
2023-07-15T09:38:43.867Z,10.00
2023-07-15T09:43:48.926Z,8.60
2023-07-15T09:48:53.230Z,10.40
2023-07-15T09:53:57.102Z,9.00
2023-07-15T09:59:04.909Z,8.40
2023-07-15T10:04:12.817Z,7.60
2023-07-15T10:09:15.853Z,8.00
2023-07-15T10:14:21.792Z,7.00
2023-07-15T10:19:48.886Z,8.00
2023-07-15T10:24:54.884Z,43.00
2023-07-15T10:30:17.346Z,58.00
2023-07-15T10:35:20.878Z,64.00
2023-07-15T10:40:49.809Z,59.00
2023-07-15T10:45:54.841Z,67.33
2023-07-15T10:50:58.359Z,66.33
2023-07-15T10:56:02.092Z,67.00
2023-07-15T11:01:07.044Z,64.00
2023-07-15T11:06:11.063Z,66.67
2023-07-15T11:11:14.310Z,66.33
2023-07-15T11:16:19.209Z,60.67
2023-07-15T11:21:23.340Z,59.00
2023-07-15T11:26:26.932Z,57.33
2023-07-15T11:31:31.257Z,59.67
2023-07-15T11:36:34.315Z,58.00
2023-07-15T11:41:38.416Z,56.33
2023-07-15T11:46:46.141Z,55.33
2023-07-15T11:51:49.017Z,53.00
2023-07-15T11:56:56.692Z,53.00
2023-07-15T12:02:04.804Z,58.67
2023-07-15T12:07:08.001Z,54.25
2023-07-15T12:12:10.952Z,56.50
2023-07-15T12:17:15.374Z,51.67
2023-07-15T12:22:18.212Z,49.25
2023-07-15T12:27:21.336Z,56.75
2023-07-15T12:32:26.594Z,51.25
2023-07-15T12:37:29.683Z,52.50
2023-07-15T12:42:32.554Z,52.50
2023-07-15T12:47:36.831Z,48.50
2023-07-15T12:52:39.928Z,51.00
2023-07-15T12:57:45.424Z,43.25
2023-07-15T13:02:50.404Z,48.75
2023-07-15T13:07:54.132Z,45.50
2023-07-15T13:12:57.039Z,50.25
2023-07-15T13:18:01.501Z,45.00
2023-07-15T13:23:04.743Z,49.25
2023-07-15T13:28:08.223Z,49.25
2023-07-15T13:33:12.538Z,44.00
2023-07-15T13:38:15.559Z,48.25
2023-07-15T13:43:18.427Z,47.50
2023-07-15T13:48:22.658Z,42.00
2023-07-15T13:53:25.481Z,41.75
2023-07-15T13:58:28.296Z,40.25
2023-07-15T14:03:32.528Z,44.25
2023-07-15T14:08:35.401Z,41.75
2023-07-15T14:13:38.538Z,42.25
2023-07-15T14:18:43.197Z,44.25
2023-07-15T14:23:46.077Z,39.00
2023-07-15T14:28:48.928Z,42.50
2023-07-15T14:33:55.345Z,39.00
2023-07-15T14:38:58.422Z,42.00
2023-07-15T14:44:01.356Z,39.25
2023-07-15T14:49:05.743Z,39.00
2023-07-15T14:54:09.013Z,32.75
2023-07-15T14:59:11.873Z,39.50
2023-07-15T15:04:16.151Z,39.00
2023-07-15T15:09:19.075Z,35.60
2023-07-15T15:14:22.643Z,34.75
2023-07-15T15:19:27.499Z,37.00
2023-07-15T15:24:30.731Z,31.75
2023-07-15T15:29:33.552Z,33.75
2023-07-15T15:34:37.951Z,36.80
2023-07-15T15:39:42.209Z,32.80
2023-07-15T15:44:45.087Z,31.00
2023-07-15T15:49:49.282Z,34.25
2023-07-15T15:54:52.121Z,32.50
2023-07-15T15:59:56.924Z,29.75
2023-07-15T16:05:01.227Z,33.00
2023-07-15T16:10:04.439Z,33.80
2023-07-15T16:15:08.637Z,27.00
2023-07-15T16:20:13.360Z,26.80
2023-07-15T16:25:16.380Z,30.00
2023-07-15T16:30:19.240Z,29.20
2023-07-15T16:35:23.441Z,32.00
2023-07-15T16:40:26.393Z,34.75
2023-07-15T16:45:29.522Z,25.80
2023-07-15T16:50:33.743Z,29.80
2023-07-15T16:55:36.744Z,26.80
2023-07-15T17:00:39.622Z,25.00
2023-07-15T17:05:43.870Z,27.60
2023-07-15T17:10:46.717Z,25.60
2023-07-15T17:15:49.583Z,28.20
2023-07-15T17:20:54.184Z,29.20
2023-07-15T17:25:57.036Z,27.40
2023-07-15T17:30:59.993Z,29.40
2023-07-15T17:36:04.426Z,25.00
2023-07-15T17:41:07.363Z,24.00
2023-07-15T17:46:10.327Z,25.40
2023-07-15T17:51:15.011Z,26.20
2023-07-15T17:56:19.504Z,24.20
2023-07-15T18:01:22.398Z,24.20
2023-07-15T18:06:26.882Z,26.40
2023-07-15T18:11:29.733Z,25.20
2023-07-15T18:16:32.729Z,23.40
2023-07-15T18:21:37.211Z,24.20
2023-07-15T18:26:40.068Z,22.80
2023-07-15T18:31:42.979Z,23.60
2023-07-15T18:36:47.348Z,23.00
2023-07-15T18:41:50.288Z,22.40
2023-07-15T18:46:53.189Z,23.80
2023-07-15T18:51:57.452Z,19.60
2023-07-15T18:57:12.159Z,20.40
2023-07-15T19:02:23.490Z,22.00
2023-07-15T19:07:30.555Z,23.20
2023-07-15T19:12:33.430Z,17.40
2023-07-15T19:17:36.989Z,19.80
2023-07-15T19:22:41.214Z,19.60
2023-07-15T19:27:44.167Z,18.60
2023-07-15T19:32:47.096Z,13.40
2023-07-15T19:37:51.454Z,12.00
2023-07-15T19:42:54.571Z,10.40
2023-07-15T19:47:57.636Z,10.40
2023-07-15T19:53:02.028Z,9.80
2023-07-15T19:58:04.968Z,8.20
2023-07-15T20:03:08.048Z,10.00
2023-07-15T20:08:12.381Z,9.60
2023-07-15T20:13:17.571Z,10.40
2023-07-15T20:18:20.789Z,9.00
2023-07-15T20:23:25.073Z,8.20
2023-07-15T20:28:28.164Z,8.20
2023-07-15T20:33:31.185Z,10.00
2023-07-15T20:38:36.801Z,10.20
2023-07-15T20:43:39.807Z,8.60
2023-07-15T20:48:42.625Z,9.60
2023-07-15T20:53:46.798Z,9.20
2023-07-15T20:58:49.641Z,10.20
2023-07-15T21:03:53.100Z,9.40
2023-07-15T21:08:57.311Z,9.40
2023-07-15T21:14:00.331Z,8.40
2023-07-15T21:19:03.242Z,7.00
2023-07-15T21:24:07.736Z,8.40
2023-07-15T21:29:10.568Z,11.00
2023-07-15T21:34:13.466Z,7.60
2023-07-15T21:39:17.748Z,10.00
2023-07-15T21:44:20.577Z,9.60
2023-07-15T21:49:23.595Z,8.00
2023-07-15T21:54:27.825Z,9.80
2023-07-15T21:59:30.835Z,8.60
2023-07-15T22:04:34.821Z,10.00
2023-07-15T22:09:39.119Z,10.00
2023-07-15T22:14:41.897Z,10.80
2023-07-15T22:19:44.732Z,11.60
2023-07-15T22:24:48.859Z,9.00
2023-07-15T22:29:51.700Z,9.60
2023-07-15T22:34:54.517Z,9.00
2023-07-15T22:39:58.775Z,9.60
2023-07-15T22:45:01.683Z,10.20
2023-07-15T22:50:04.793Z,11.20
2023-07-15T22:55:09.702Z,9.20
2023-07-15T23:00:14.081Z,9.00
2023-07-15T23:05:16.947Z,9.00
2023-07-15T23:10:21.535Z,9.40
2023-07-15T23:15:24.350Z,9.60
2023-07-15T23:20:27.085Z,10.20
2023-07-15T23:25:31.217Z,11.80
2023-07-15T23:30:34.344Z,10.20
2023-07-15T23:35:41.236Z,10.40
2023-07-15T23:40:45.439Z,9.60
2023-07-15T23:45:48.198Z,9.60
2023-07-15T23:50:51.161Z,10.60
2023-07-15T23:55:55.421Z,12.00
